createdAt,value
2023-03-28T00:00:48.072Z,2.50
2023-03-28T00:03:18.936Z,2.60
2023-03-28T00:05:50.211Z,2.60
2023-03-28T00:08:18.090Z,2.60
2023-03-28T00:10:45.830Z,2.60
2023-03-28T00:13:13.992Z,2.60
2023-03-28T00:15:42.424Z,2.50
2023-03-28T00:18:13.097Z,2.50
2023-03-28T00:20:43.414Z,2.40
2023-03-28T00:23:12.008Z,2.40
2023-03-28T00:25:43.414Z,2.40
2023-03-28T00:28:10.209Z,2.40
2023-03-28T00:30:37.309Z,2.40
2023-03-28T00:33:07.272Z,2.40
2023-03-28T00:35:35.403Z,2.40
2023-03-28T00:38:03.116Z,2.40
2023-03-28T00:40:35.934Z,2.30
2023-03-28T00:43:02.792Z,2.30
2023-03-28T00:45:29.579Z,2.20
2023-03-28T00:48:04.583Z,2.20
2023-03-28T00:50:41.867Z,2.10
2023-03-28T00:53:14.212Z,2.00
2023-03-28T00:55:48.411Z,2.00
2023-03-28T00:58:24.655Z,2.10
2023-03-28T01:00:56.910Z,2.00
2023-03-28T01:03:33.727Z,2.00
2023-03-28T01:06:04.447Z,2.00
2023-03-28T01:08:41.038Z,1.90
2023-03-28T01:11:09.004Z,1.90
2023-03-28T01:13:39.363Z,1.90
2023-03-28T01:16:08.088Z,1.80
2023-03-28T01:18:41.209Z,1.80
2023-03-28T01:21:48.772Z,1.80
2023-03-28T01:25:00.794Z,1.80
2023-03-28T01:27:42.157Z,1.80
2023-03-28T01:30:09.344Z,1.80
2023-03-28T01:33:04.847Z,1.70
2023-03-28T01:36:03.728Z,1.70
2023-03-28T01:38:33.121Z,1.80
2023-03-28T01:41:30.754Z,1.80
2023-03-28T01:44:22.194Z,1.70
2023-03-28T01:47:00.438Z,1.70
2023-03-28T01:49:44.639Z,1.70
2023-03-28T01:52:27.906Z,1.70
2023-03-28T01:55:06.992Z,1.70
2023-03-28T01:57:46.219Z,1.80
2023-03-28T02:00:29.199Z,1.70
2023-03-28T02:03:31.927Z,1.80
2023-03-28T02:06:06.306Z,1.80
2023-03-28T02:08:37.048Z,1.80
2023-03-28T02:11:26.443Z,1.70
2023-03-28T02:14:12.017Z,1.70
2023-03-28T02:16:57.408Z,1.70
2023-03-28T02:19:55.146Z,1.70
2023-03-28T02:22:46.518Z,1.60
2023-03-28T02:25:31.727Z,1.50
2023-03-28T02:28:17.620Z,1.60
2023-03-28T02:31:07.240Z,1.50
2023-03-28T02:33:40.392Z,1.60
2023-03-28T02:36:19.298Z,1.70
2023-03-28T02:39:07.702Z,1.70
2023-03-28T02:42:07.300Z,1.60
2023-03-28T02:44:49.011Z,1.70
2023-03-28T02:47:36.396Z,1.70
2023-03-28T02:50:20.999Z,1.80
2023-03-28T02:53:27.107Z,1.80
2023-03-28T02:55:59.312Z,1.80
2023-03-28T02:58:55.532Z,1.90
2023-03-28T03:01:25.405Z,1.90
2023-03-28T03:03:52.648Z,1.90
2023-03-28T03:06:19.418Z,1.90
2023-03-28T03:08:46.260Z,2.00
2023-03-28T03:11:13.162Z,2.00
2023-03-28T03:13:39.934Z,1.90
2023-03-28T03:16:06.822Z,2.00
2023-03-28T03:18:34.804Z,1.90
2023-03-28T03:21:01.680Z,1.90
2023-03-28T03:23:28.808Z,1.90
2023-03-28T03:25:58.367Z,1.90
2023-03-28T03:28:41.016Z,1.80
2023-03-28T03:31:08.090Z,1.80
2023-03-28T03:33:51.098Z,1.80
2023-03-28T03:36:27.097Z,1.90
2023-03-28T03:38:53.827Z,1.90
2023-03-28T03:41:22.696Z,1.80
2023-03-28T03:43:49.397Z,1.80
2023-03-28T03:46:16.076Z,1.70
2023-03-28T03:48:49.409Z,1.70
2023-03-28T03:51:17.536Z,1.80
2023-03-28T03:53:44.894Z,1.80
2023-03-28T03:56:14.863Z,1.90
2023-03-28T03:58:51.906Z,1.90
2023-03-28T04:01:19.294Z,1.90
2023-03-28T04:03:48.042Z,1.90
2023-03-28T04:06:22.229Z,1.90
2023-03-28T04:08:48.859Z,1.90
2023-03-28T04:11:24.819Z,1.80
2023-03-28T04:13:51.455Z,1.80
2023-03-28T04:16:20.719Z,1.80
2023-03-28T04:18:56.640Z,1.80
2023-03-28T04:21:30.902Z,1.80
2023-03-28T04:24:01.833Z,1.70
2023-03-28T04:26:38.066Z,1.60
2023-03-28T04:29:07.279Z,1.60
2023-03-28T04:31:39.498Z,1.50
2023-03-28T04:34:15.239Z,1.40
2023-03-28T04:37:02.374Z,1.20
2023-03-28T04:39:35.591Z,1.20
2023-03-28T04:42:31.805Z,1.10
2023-03-28T04:45:06.239Z,1.10
2023-03-28T04:47:37.408Z,1.10
2023-03-28T04:50:04.587Z,1.20
2023-03-28T04:52:36.104Z,1.30
2023-03-28T04:55:04.416Z,1.30
2023-03-28T04:57:32.427Z,1.30
2023-03-28T05:00:07.247Z,1.40
2023-03-28T05:03:14.343Z,1.40
2023-03-28T05:05:52.847Z,1.40
2023-03-28T05:08:23.079Z,1.40
2023-03-28T05:10:51.047Z,1.40
2023-03-28T05:13:18.309Z,1.30
2023-03-28T05:15:57.988Z,1.40
2023-03-28T05:19:03.771Z,1.40
2023-03-28T05:21:49.160Z,1.40
2023-03-28T05:24:16.111Z,1.50
2023-03-28T05:26:42.863Z,1.60
2023-03-28T05:29:09.810Z,1.60
2023-03-28T05:31:37.709Z,1.60
2023-03-28T05:34:24.102Z,1.70
2023-03-28T05:36:51.070Z,1.70
2023-03-28T05:39:26.527Z,1.70
2023-03-28T05:41:59.828Z,1.70
2023-03-28T05:44:26.479Z,1.80
2023-03-28T05:47:16.533Z,1.80
2023-03-28T05:49:43.360Z,1.80
2023-03-28T05:52:10.915Z,1.70
2023-03-28T05:54:39.138Z,1.80
2023-03-28T05:57:06.010Z,1.80
2023-03-28T05:59:32.916Z,1.90
2023-03-28T06:02:00.194Z,1.90
2023-03-28T06:04:27.895Z,1.90
2023-03-28T06:06:55.481Z,1.90
2023-03-28T06:09:27.032Z,2.00
2023-03-28T06:11:58.820Z,2.00
2023-03-28T06:14:26.246Z,1.90
2023-03-28T06:16:55.498Z,2.00
2023-03-28T06:19:22.472Z,2.00
2023-03-28T06:21:53.458Z,2.20
2023-03-28T06:24:21.636Z,2.00
2023-03-28T06:26:48.515Z,2.00
2023-03-28T06:29:19.482Z,2.00
2023-03-28T06:31:48.328Z,2.10
2023-03-28T06:34:15.220Z,2.00
2023-03-28T06:36:55.962Z,2.00
2023-03-28T06:39:26.080Z,2.00
2023-03-28T06:41:56.580Z,2.10
2023-03-28T06:44:31.308Z,2.00
2023-03-28T06:47:11.390Z,1.90
2023-03-28T06:49:38.209Z,1.90
2023-03-28T06:52:27.679Z,1.80
2023-03-28T06:54:55.875Z,1.80
2023-03-28T06:57:23.632Z,1.80
2023-03-28T06:59:53.768Z,1.80
2023-03-28T07:02:27.403Z,1.90
2023-03-28T07:04:59.461Z,2.00
2023-03-28T07:07:26.236Z,2.20
2023-03-28T07:09:54.567Z,2.20
2023-03-28T07:12:21.596Z,2.30
2023-03-28T07:14:48.376Z,2.40
2023-03-28T07:17:15.504Z,2.60
2023-03-28T07:19:42.147Z,2.80
2023-03-28T07:22:08.970Z,3.00
2023-03-28T07:24:36.342Z,3.10
2023-03-28T07:27:15.357Z,3.10
2023-03-28T07:29:42.534Z,3.20
2023-03-28T07:32:09.180Z,3.30
2023-03-28T07:34:35.911Z,3.40
2023-03-28T07:37:03.649Z,3.40
2023-03-28T07:39:44.715Z,3.40
2023-03-28T07:42:16.116Z,3.70
2023-03-28T07:44:42.833Z,3.70
2023-03-28T07:47:10.190Z,3.60
2023-03-28T07:49:36.839Z,3.70
2023-03-28T07:52:04.378Z,3.50
2023-03-28T07:54:33.070Z,3.60
2023-03-28T07:57:00.486Z,3.50
2023-03-28T07:59:50.254Z,3.60
2023-03-28T08:02:17.104Z,3.70
2023-03-28T08:04:43.890Z,3.80
2023-03-28T08:07:12.646Z,3.80
2023-03-28T08:09:42.406Z,3.70
2023-03-28T08:12:14.123Z,3.60
2023-03-28T08:14:42.462Z,3.60
2023-03-28T08:17:10.517Z,3.70
2023-03-28T08:19:37.224Z,3.90
2023-03-28T08:22:27.240Z,3.90
2023-03-28T08:25:07.494Z,4.00
2023-03-28T08:27:35.615Z,4.20
2023-03-28T08:30:08.765Z,4.40
2023-03-28T08:32:38.905Z,4.50
2023-03-28T08:35:06.856Z,4.40
2023-03-28T08:37:33.718Z,4.50
2023-03-28T08:40:10.119Z,4.50
2023-03-28T08:43:07.176Z,4.60
2023-03-28T08:45:48.378Z,4.70
2023-03-28T08:48:39.072Z,4.80
2023-03-28T08:51:22.190Z,4.80
2023-03-28T08:54:18.475Z,5.00
2023-03-28T08:56:59.729Z,5.20
2023-03-28T08:59:48.022Z,5.30
2023-03-28T09:02:29.654Z,5.40
2023-03-28T09:05:08.211Z,5.40
2023-03-28T09:08:07.548Z,5.30
2023-03-28T09:10:45.357Z,5.40
2023-03-28T09:13:32.553Z,5.50
2023-03-28T09:16:08.791Z,5.70
2023-03-28T09:19:10.739Z,5.90
2023-03-28T09:22:16.003Z,5.90
2023-03-28T09:25:02.364Z,5.90
2023-03-28T09:27:39.963Z,5.80
2023-03-28T09:30:21.457Z,5.90
2023-03-28T09:32:49.447Z,6.10
2023-03-28T09:35:21.402Z,6.40
2023-03-28T09:37:55.893Z,6.70
2023-03-28T09:40:25.217Z,6.40
2023-03-28T09:43:27.653Z,6.20
2023-03-28T09:46:37.568Z,6.30
2023-03-28T09:49:24.566Z,7.40
2023-03-28T09:52:15.823Z,8.20
2023-03-28T09:54:43.179Z,8.30
2023-03-28T09:57:09.976Z,8.10
2023-03-28T09:59:44.284Z,7.70
2023-03-28T10:02:29.338Z,7.50
2023-03-28T10:05:00.465Z,7.20
2023-03-28T10:07:33.564Z,7.50
2023-03-28T10:10:19.311Z,7.60
2023-03-28T10:12:49.063Z,8.00
2023-03-28T10:15:45.730Z,8.00
2023-03-28T10:18:31.883Z,7.30
2023-03-28T10:21:25.699Z,7.00
2023-03-28T10:24:09.328Z,7.00
2023-03-28T10:26:37.139Z,6.90
2023-03-28T10:29:08.494Z,8.10
2023-03-28T10:31:39.038Z,8.90
2023-03-28T10:34:26.365Z,9.00
2023-03-28T10:37:01.900Z,9.60
2023-03-28T10:40:05.671Z,9.50
2023-03-28T10:43:02.449Z,9.60
2023-03-28T10:45:45.664Z,9.60
2023-03-28T10:48:25.752Z,9.60
2023-03-28T10:50:55.666Z,9.60
2023-03-28T10:53:51.304Z,9.90
2023-03-28T10:56:42.701Z,9.90
2023-03-28T10:59:41.484Z,9.60
2023-03-28T11:02:38.851Z,9.60
2023-03-28T11:05:28.641Z,9.40
2023-03-28T11:08:27.264Z,9.70
2023-03-28T11:11:31.431Z,9.90
2023-03-28T11:14:37.942Z,10.00
2023-03-28T11:17:21.900Z,10.30
2023-03-28T11:20:07.061Z,9.40
2023-03-28T11:23:21.789Z,8.60
2023-03-28T11:26:14.505Z,8.10
2023-03-28T11:29:19.206Z,8.00
2023-03-28T11:32:15.305Z,8.10
2023-03-28T11:35:17.445Z,8.10
2023-03-28T11:38:09.197Z,8.10
2023-03-28T11:40:39.106Z,7.70
2023-03-28T11:43:14.420Z,7.50
2023-03-28T11:45:51.932Z,7.20
2023-03-28T11:48:38.386Z,7.50
2023-03-28T11:51:13.303Z,7.40
2023-03-28T11:53:58.067Z,7.30
2023-03-28T11:56:58.501Z,7.30
2023-03-28T11:59:52.603Z,7.50
2023-03-28T12:02:39.099Z,7.20
2023-03-28T12:05:18.336Z,7.00
2023-03-28T12:08:20.218Z,7.20
2023-03-28T12:10:52.605Z,7.30
2023-03-28T12:13:45.585Z,7.50
2023-03-28T12:16:23.988Z,7.90
2023-03-28T12:19:02.911Z,8.00
2023-03-28T12:22:09.281Z,8.00
2023-03-28T12:25:00.285Z,7.80
2023-03-28T12:27:53.278Z,7.80
2023-03-28T12:30:32.465Z,7.80
2023-03-28T12:33:20.126Z,8.10
2023-03-28T12:36:05.002Z,8.00
2023-03-28T12:38:44.281Z,7.70
2023-03-28T12:41:26.994Z,7.70
2023-03-28T12:44:04.656Z,7.90
2023-03-28T12:46:46.171Z,8.10
2023-03-28T12:49:16.406Z,8.20
2023-03-28T12:51:51.339Z,8.00
2023-03-28T12:54:27.679Z,8.20
2023-03-28T12:57:07.729Z,8.30
2023-03-28T13:00:15.310Z,8.40
2023-03-28T13:03:14.720Z,8.40
2023-03-28T13:06:11.903Z,8.90
2023-03-28T13:09:19.167Z,9.40
2023-03-28T13:12:14.488Z,9.80
2023-03-28T13:14:42.233Z,9.70
2023-03-28T13:17:26.512Z,9.60
2023-03-28T13:20:12.908Z,9.70
2023-03-28T13:22:54.490Z,9.60
2023-03-28T13:25:32.287Z,9.90
2023-03-28T13:28:10.219Z,10.40
2023-03-28T13:30:41.613Z,11.30
2023-03-28T13:33:25.581Z,10.50
2023-03-28T13:35:58.251Z,9.80
2023-03-28T13:38:58.278Z,9.80
2023-03-28T13:41:43.737Z,9.90
2023-03-28T13:44:20.119Z,10.00
2023-03-28T13:46:52.169Z,9.50
2023-03-28T13:49:59.751Z,8.90
2023-03-28T13:52:26.510Z,8.60
2023-03-28T13:55:00.677Z,8.70
2023-03-28T13:57:28.046Z,9.00
2023-03-28T13:59:58.464Z,9.30
2023-03-28T14:02:42.034Z,9.00
2023-03-28T14:05:19.390Z,8.90
2023-03-28T14:07:46.995Z,8.30
2023-03-28T14:10:34.222Z,8.10
2023-03-28T14:13:05.598Z,8.20
2023-03-28T14:15:36.226Z,8.50
2023-03-28T14:18:03.357Z,8.60
2023-03-28T14:20:32.097Z,8.30
2023-03-28T14:23:00.956Z,8.40
2023-03-28T14:25:28.617Z,8.30
2023-03-28T14:27:56.636Z,8.40
2023-03-28T14:30:37.197Z,8.60
2023-03-28T14:33:11.445Z,9.50
2023-03-28T14:35:45.535Z,9.70
2023-03-28T14:38:14.775Z,8.70
2023-03-28T14:40:43.735Z,8.60
2023-03-28T14:43:12.014Z,8.60
2023-03-28T14:45:44.659Z,8.70
2023-03-28T14:48:19.027Z,8.70
2023-03-28T14:50:48.504Z,8.70
2023-03-28T14:53:24.697Z,8.60
2023-03-28T14:55:54.405Z,8.80
2023-03-28T14:58:23.903Z,8.60
2023-03-28T15:00:54.256Z,8.70
2023-03-28T15:03:41.445Z,9.20
2023-03-28T15:06:14.962Z,9.60
2023-03-28T15:08:43.571Z,9.80
2023-03-28T15:11:23.540Z,10.40
2023-03-28T15:13:59.066Z,10.50
2023-03-28T15:16:26.842Z,10.20
2023-03-28T15:18:59.217Z,10.70
2023-03-28T15:21:26.373Z,10.70
2023-03-28T15:23:58.007Z,10.40
2023-03-28T15:26:29.827Z,10.30
2023-03-28T15:28:57.999Z,10.00
2023-03-28T15:31:26.748Z,10.00
2023-03-28T15:33:54.566Z,10.10
2023-03-28T15:36:29.942Z,10.30
2023-03-28T15:39:23.027Z,10.50
2023-03-28T15:42:11.701Z,10.20
2023-03-28T15:44:40.848Z,9.60
2023-03-28T15:47:14.895Z,9.20
2023-03-28T15:49:41.631Z,9.20
2023-03-28T15:52:17.605Z,9.00
2023-03-28T15:54:49.904Z,8.90
2023-03-28T15:57:19.549Z,8.90
2023-03-28T15:59:48.623Z,8.90
2023-03-28T16:02:22.599Z,8.80
2023-03-28T16:05:14.071Z,8.60
2023-03-28T16:07:43.654Z,8.50
2023-03-28T16:10:11.239Z,8.30
2023-03-28T16:12:57.512Z,8.30
2023-03-28T16:15:53.558Z,8.20
2023-03-28T16:18:32.783Z,8.20
2023-03-28T16:21:27.661Z,8.40
2023-03-28T16:23:54.535Z,8.50
2023-03-28T16:26:21.230Z,8.60
2023-03-28T16:28:47.845Z,8.50
2023-03-28T16:31:15.642Z,8.40
2023-03-28T16:33:42.529Z,8.30
2023-03-28T16:36:12.910Z,8.30
2023-03-28T16:38:39.737Z,8.30
2023-03-28T16:41:06.991Z,8.10
2023-03-28T16:43:33.708Z,8.10
2023-03-28T16:46:22.102Z,8.00
2023-03-28T16:48:48.812Z,7.90
2023-03-28T16:51:15.467Z,7.80
2023-03-28T16:53:42.289Z,7.80
2023-03-28T16:56:15.333Z,7.70
2023-03-28T16:58:42.357Z,7.70
2023-03-28T17:01:12.152Z,7.70
2023-03-28T17:03:39.145Z,7.60
2023-03-28T17:06:08.079Z,7.60
2023-03-28T17:08:36.315Z,7.50
2023-03-28T17:11:07.636Z,7.40
2023-03-28T17:13:34.876Z,7.40
2023-03-28T17:16:02.056Z,7.30
2023-03-28T17:18:29.847Z,7.30
2023-03-28T17:21:08.411Z,7.30
2023-03-28T17:23:37.911Z,7.10
2023-03-28T17:26:07.052Z,7.10
2023-03-28T17:28:36.872Z,7.00
2023-03-28T17:31:08.083Z,6.90
2023-03-28T17:33:35.401Z,6.80
2023-03-28T17:36:13.376Z,6.70
2023-03-28T17:38:40.160Z,6.70
2023-03-28T17:41:08.027Z,6.60
2023-03-28T17:43:40.548Z,6.50
2023-03-28T17:46:08.335Z,6.50
2023-03-28T17:48:37.348Z,6.50
2023-03-28T17:51:04.228Z,6.50
2023-03-28T17:53:31.305Z,6.40
2023-03-28T17:55:58.966Z,6.40
2023-03-28T17:58:25.900Z,6.30
2023-03-28T18:00:52.627Z,6.30
2023-03-28T18:03:19.337Z,6.20
2023-03-28T18:06:15.389Z,6.10
2023-03-28T18:08:44.606Z,6.10
2023-03-28T18:11:14.543Z,6.00
2023-03-28T18:13:41.990Z,6.00
2023-03-28T18:16:10.782Z,5.90
2023-03-28T18:18:38.414Z,5.90
2023-03-28T18:21:07.523Z,6.00
2023-03-28T18:23:35.837Z,6.00
2023-03-28T18:26:02.899Z,6.00
2023-03-28T18:28:29.769Z,6.00
2023-03-28T18:31:05.415Z,5.90
2023-03-28T18:33:45.265Z,5.90
2023-03-28T18:36:13.219Z,5.70
2023-03-28T18:38:42.662Z,5.60
2023-03-28T18:41:12.300Z,5.50
2023-03-28T18:43:41.306Z,5.50
2023-03-28T18:46:08.731Z,5.40
2023-03-28T18:48:36.215Z,5.40
2023-03-28T18:51:06.130Z,5.30
2023-03-28T18:53:33.735Z,5.40
2023-03-28T18:56:01.255Z,5.40
2023-03-28T18:58:28.398Z,5.40
2023-03-28T19:00:58.380Z,5.40
2023-03-28T19:03:26.792Z,5.30
2023-03-28T19:05:57.988Z,5.30
2023-03-28T19:08:27.990Z,5.20
2023-03-28T19:10:56.452Z,5.20
2023-03-28T19:13:24.134Z,5.20
2023-03-28T19:16:12.364Z,5.10
2023-03-28T19:18:40.763Z,5.10
2023-03-28T19:21:08.547Z,5.00
2023-03-28T19:23:36.957Z,5.00
2023-03-28T19:26:06.702Z,4.90
2023-03-28T19:28:33.982Z,4.90
2023-03-28T19:31:06.235Z,4.80
2023-03-28T19:33:33.718Z,4.90
2023-03-28T19:36:00.923Z,5.00
2023-03-28T19:38:27.983Z,4.90
2023-03-28T19:40:58.938Z,4.80
2023-03-28T19:43:26.132Z,4.80
2023-03-28T19:45:52.988Z,4.80
2023-03-28T19:48:19.777Z,4.70
2023-03-28T19:50:49.810Z,4.80
2023-03-28T19:53:16.692Z,4.80
2023-03-28T19:55:43.537Z,4.80
2023-03-28T19:58:10.361Z,4.80
2023-03-28T20:00:37.044Z,4.80
2023-03-28T20:03:03.949Z,5.00
2023-03-28T20:05:30.874Z,5.00
2023-03-28T20:07:57.615Z,5.00
2023-03-28T20:10:24.298Z,5.00
2023-03-28T20:12:51.043Z,5.10
2023-03-28T20:15:17.844Z,5.20
2023-03-28T20:17:45.421Z,5.20
2023-03-28T20:20:12.883Z,5.20
2023-03-28T20:22:39.706Z,5.30
2023-03-28T20:25:07.096Z,5.30
2023-03-28T20:27:35.746Z,5.30
2023-03-28T20:30:03.367Z,5.40
2023-03-28T20:32:30.076Z,5.40
2023-03-28T20:34:56.753Z,5.40
2023-03-28T20:37:23.637Z,5.40
2023-03-28T20:39:51.891Z,5.40
2023-03-28T20:42:19.360Z,5.50
2023-03-28T20:44:46.074Z,5.50
2023-03-28T20:47:14.975Z,5.50
2023-03-28T20:49:45.927Z,5.50
2023-03-28T20:52:12.819Z,5.50
2023-03-28T20:54:40.131Z,5.50
2023-03-28T20:57:06.962Z,5.50
2023-03-28T20:59:34.622Z,5.50
2023-03-28T21:02:02.016Z,5.50
2023-03-28T21:04:28.920Z,5.50
2023-03-28T21:06:57.443Z,5.50
2023-03-28T21:09:24.642Z,5.60
2023-03-28T21:11:51.582Z,5.60
2023-03-28T21:14:18.486Z,5.50
2023-03-28T21:16:47.348Z,5.50
2023-03-28T21:19:14.148Z,5.50
2023-03-28T21:21:40.801Z,5.40
2023-03-28T21:24:08.066Z,5.50
2023-03-28T21:26:35.779Z,5.50
2023-03-28T21:29:02.750Z,5.50
2023-03-28T21:31:29.966Z,5.50
2023-03-28T21:33:58.309Z,5.50
2023-03-28T21:36:26.435Z,5.50
2023-03-28T21:38:53.256Z,5.50
2023-03-28T21:41:20.517Z,5.40
2023-03-28T21:43:48.120Z,5.50
2023-03-28T21:46:18.049Z,5.50
2023-03-28T21:48:47.698Z,5.50
2023-03-28T21:51:15.482Z,5.60
2023-03-28T21:53:42.425Z,5.60
2023-03-28T21:56:16.260Z,5.70
2023-03-28T21:58:43.002Z,5.80
2023-03-28T22:01:12.967Z,6.00
2023-03-28T22:03:40.237Z,6.00
2023-03-28T22:06:07.784Z,6.10
2023-03-28T22:08:34.455Z,6.10
2023-03-28T22:11:04.412Z,6.20
2023-03-28T22:13:31.425Z,6.20
2023-03-28T22:15:59.912Z,6.10
2023-03-28T22:18:27.550Z,6.20
2023-03-28T22:20:54.273Z,6.20
2023-03-28T22:23:23.243Z,6.20
2023-03-28T22:25:50.034Z,6.20
2023-03-28T22:28:16.960Z,6.20
2023-03-28T22:30:43.654Z,6.30
2023-03-28T22:33:13.388Z,6.30
2023-03-28T22:35:41.077Z,6.30
2023-03-28T22:38:08.238Z,6.40
2023-03-28T22:40:35.112Z,6.40
2023-03-28T22:43:03.025Z,6.40
2023-03-28T22:45:29.963Z,6.40
2023-03-28T22:48:01.617Z,6.40
2023-03-28T22:50:28.802Z,6.30
2023-03-28T22:52:55.911Z,6.40
2023-03-28T22:55:24.149Z,6.40
2023-03-28T22:57:52.312Z,6.40
2023-03-28T23:00:23.418Z,6.40
2023-03-28T23:02:51.747Z,6.40
2023-03-28T23:05:19.338Z,6.40
2023-03-28T23:07:46.171Z,6.30
2023-03-28T23:10:16.376Z,6.30
2023-03-28T23:12:43.495Z,6.20
2023-03-28T23:15:11.000Z,6.20
2023-03-28T23:17:38.225Z,6.20
2023-03-28T23:20:12.986Z,6.20
2023-03-28T23:22:41.461Z,6.30
2023-03-28T23:25:09.022Z,6.20
2023-03-28T23:27:35.733Z,6.20
2023-03-28T23:30:02.468Z,6.20
2023-03-28T23:32:29.259Z,6.30
2023-03-28T23:34:56.590Z,6.20
2023-03-28T23:37:27.207Z,6.20
2023-03-28T23:39:57.380Z,6.20
2023-03-28T23:42:24.969Z,6.30
2023-03-28T23:44:52.580Z,6.10
2023-03-28T23:47:20.280Z,6.10
2023-03-28T23:49:47.334Z,6.10
2023-03-28T23:52:14.257Z,6.00
2023-03-28T23:54:40.964Z,6.00
2023-03-28T23:57:08.877Z,6.00
2023-03-28T23:59:35.757Z,6.00
